Time;durP1;ratioP1;P1;durP2;ratioP2;P2;SDS_P1;SDS_P2;PMS_P1;PMS_P2;Temp;Humidity;BMP_temperature;BMP_pressure;BME280_temperature;BME280_humidity;BME280_pressure;Samples;Min_cycle;Max_cycle;Signal;HPM_P1;HPM_P2
2022/06/13 00:04:01;;;;;;;6.22;1.90;;;11.20;99.90;;;;;;7342149;32;20229;-60
2022/06/13 00:08:04;;;;;;;6.45;2.22;;;11.20;99.90;;;;;;7345834;32;20538;-60
2022/06/13 00:12:06;;;;;;;9.63;2.10;;;11.10;99.90;;;;;;7355984;32;20487;-61
2022/06/13 00:16:09;;;;;;;4.70;2.20;;;11.00;99.90;;;;;;7352761;32;20103;-60
2022/06/13 00:20:12;;;;;;;7.00;2.00;;;11.00;99.90;;;;;;7349594;32;20594;-59
2022/06/13 00:24:14;;;;;;;7.90;1.90;;;10.90;99.90;;;;;;7338718;32;20238;-60
2022/06/13 00:28:15;;;;;;;5.78;2.00;;;10.80;99.90;;;;;;7350589;32;20427;-61
2022/06/13 00:32:18;;;;;;;6.72;1.92;;;10.80;99.90;;;;;;7343548;32;20119;-60
2022/06/13 00:36:23;;;;;;;7.35;1.85;;;10.80;99.90;;;;;;7349214;32;20212;-60
2022/06/13 00:40:25;;;;;;;3.22;2.03;;;10.70;99.90;;;;;;7334937;32;20131;-61
2022/06/13 00:44:31;;;;;;;7.50;1.80;;;10.70;99.90;;;;;;7334073;32;20160;-60
2022/06/13 00:48:32;;;;;;;8.70;2.28;;;10.60;99.90;;;;;;7349043;32;20203;-60
2022/06/13 00:52:48;;;;;;;5.18;1.83;;;10.50;99.90;;;;;;7336261;32;20211;-60
2022/06/13 00:56:51;;;;;;;7.68;2.10;;;10.50;99.90;;;;;;7354376;32;20710;-59
2022/06/13 01:00:56;;;;;;;5.82;2.15;;;10.50;99.90;;;;;;7350612;32;20143;-60
2022/06/13 01:04:59;;;;;;;7.37;2.05;;;10.40;99.90;;;;;;7351819;32;20127;-60
2022/06/13 01:09:08;;;;;;;4.55;2.28;;;10.40;99.90;;;;;;7347573;32;20691;-60
2022/06/13 01:13:11;;;;;;;7.03;2.12;;;10.30;99.90;;;;;;7337032;32;20224;-60
2022/06/13 01:17:32;;;;;;;4.12;2.05;;;10.30;99.90;;;;;;7333890;32;20133;-60
2022/06/13 01:21:45;;;;;;;4.25;1.92;;;10.20;99.90;;;;;;7345755;32;20111;-61
2022/06/13 01:25:52;;;;;;;6.40;2.35;;;10.30;99.90;;;;;;7345003;32;20115;-60
2022/06/13 01:30:13;;;;;;;6.20;2.55;;;10.20;99.90;;;;;;7345857;32;20133;-60
2022/06/13 01:34:34;;;;;;;4.62;2.10;;;10.10;99.90;;;;;;7348501;32;20112;-61
2022/06/13 01:38:58;;;;;;;8.20;2.37;;;10.10;99.90;;;;;;7344177;32;20341;-60
2022/06/13 01:43:00;;;;;;;4.55;2.03;;;10.00;99.90;;;;;;7345974;32;20228;-60
2022/06/13 01:47:34;;;;;;;7.90;1.90;;;10.00;99.90;;;;;;7338611;32;20237;-60
2022/06/13 01:51:57;;;;;;;4.78;2.58;;;10.10;99.90;;;;;;7338876;32;20172;-60
2022/06/13 01:56:13;;;;;;;4.18;2.12;;;10.20;99.90;;;;;;7340358;32;20160;-59
2022/06/13 02:00:20;;;;;;;5.37;2.40;;;10.20;99.90;;;;;;7339706;32;20111;-59
2022/06/13 02:04:28;;;;;;;6.07;2.20;;;10.30;99.90;;;;;;7335055;32;20111;-59
2022/06/13 02:08:38;;;;;;;6.30;2.65;;;10.20;99.90;;;;;;7341391;32;20317;-59
2022/06/13 02:12:42;;;;;;;8.73;2.78;;;10.30;99.90;;;;;;7343751;32;20126;-59
2022/06/13 02:17:05;;;;;;;5.53;2.62;;;10.30;99.90;;;;;;7315899;32;20221;-60
2022/06/13 02:21:12;;;;;;;5.78;2.60;;;10.20;99.90;;;;;;7340150;32;20602;-59
2022/06/13 02:25:28;;;;;;;4.53;2.40;;;10.30;99.90;;;;;;7340854;32;20214;-59
2022/06/13 02:29:41;;;;;;;6.72;2.20;;;10.30;99.90;;;;;;7341027;32;20265;-59
2022/06/13 02:33:46;;;;;;;6.45;2.78;;;10.20;99.90;;;;;;7327031;32;20142;-59
2022/06/13 02:37:57;;;;;;;5.47;2.30;;;10.20;99.90;;;;;;7338502;32;20100;-59
2022/06/13 02:42:07;;;;;;;9.70;2.90;;;10.20;99.90;;;;;;7336371;32;20481;-60
2022/06/13 02:46:19;;;;;;;7.65;2.53;;;10.30;99.90;;;;;;7340423;32;20246;-60
2022/06/13 02:50:45;;;;;;;6.47;2.47;;;10.20;99.90;;;;;;7337559;32;20362;-60
2022/06/13 02:54:53;;;;;;;4.72;2.25;;;10.30;99.90;;;;;;7336201;32;20223;-60
2022/06/13 02:59:20;;;;;;;6.18;2.55;;;10.30;99.90;;;;;;7341622;32;20488;-61
2022/06/13 03:03:42;;;;;;;9.00;2.80;;;10.30;99.90;;;;;;7345657;32;20133;-60
2022/06/13 03:07:56;;;;;;;4.82;2.58;;;10.30;99.90;;;;;;7346881;32;20108;-60
2022/06/13 03:12:11;;;;;;;7.82;2.72;;;10.20;99.90;;;;;;7344703;32;20138;-59
2022/06/13 03:16:36;;;;;;;7.15;2.53;;;10.30;99.90;;;;;;7346352;32;20548;-60
2022/06/13 03:20:58;;;;;;;8.45;2.92;;;10.40;99.90;;;;;;7340716;32;20111;-59
2022/06/13 03:25:16;;;;;;;7.25;2.70;;;10.50;99.90;;;;;;7341804;32;20714;-60
2022/06/13 03:29:44;;;;;;;;;;;10.50;99.90;;;;;;7354220;32;20444;-60
2022/06/13 03:33:53;;;;;;;8.65;2.85;;;10.60;99.90;;;;;;7348011;32;20091;-61
2022/06/13 03:37:55;;;;;;;8.35;3.03;;;10.70;99.90;;;;;;7345142;32;20879;-60
2022/06/13 03:42:04;;;;;;;5.25;2.87;;;10.70;99.90;;;;;;7343831;32;20120;-60
2022/06/13 03:46:16;;;;;;;6.03;3.00;;;10.70;99.90;;;;;;7346706;32;20183;-60
2022/06/13 03:50:34;;;;;;;6.78;2.87;;;10.80;99.90;;;;;;7344949;32;20707;-60
2022/06/13 03:54:41;;;;;;;6.12;2.80;;;10.90;99.90;;;;;;7350625;32;20901;-60
2022/06/13 03:58:50;;;;;;;;;;;11.00;99.90;;;;;;7345752;32;20171;-61
2022/06/13 04:02:53;;;;;;;4.78;2.70;;;11.00;99.90;;;;;;7350546;32;20016;-60
2022/06/13 04:06:55;;;;;;;5.62;2.95;;;11.00;99.90;;;;;;7344783;32;20214;-60
2022/06/13 04:11:16;;;;;;;10.73;3.17;;;11.00;99.90;;;;;;7343897;32;20558;-62
2022/06/13 04:15:27;;;;;;;7.68;2.75;;;11.10;99.90;;;;;;7345901;32;20165;-60
2022/06/13 04:19:40;;;;;;;6.45;3.30;;;11.20;99.90;;;;;;7345140;32;20159;-60
2022/06/13 04:24:08;;;;;;;9.38;2.83;;;11.30;99.90;;;;;;7352206;32;20112;-59
2022/06/13 04:28:44;;;;;;;8.23;3.15;;;11.30;99.90;;;;;;7354758;32;20171;-60
2022/06/13 04:32:51;;;;;;;5.80;3.17;;;11.40;99.90;;;;;;7353220;32;20111;-60
2022/06/13 04:36:53;;;;;;;8.73;3.03;;;11.60;99.90;;;;;;7343273;32;20780;-60
2022/06/13 04:40:59;;;;;;;7.10;3.58;;;11.60;99.90;;;;;;7346657;32;20133;-60
2022/06/13 04:45:07;;;;;;;12.65;5.55;;;11.80;99.90;;;;;;7338531;32;20708;-60
2022/06/13 04:49:32;;;;;;;12.95;6.18;;;12.00;99.90;;;;;;7349791;32;20139;-63
2022/06/13 04:53:57;;;;;;;10.75;5.80;;;12.20;99.90;;;;;;7344408;32;20230;-62
2022/06/13 04:57:59;;;;;;;18.40;8.18;;;12.40;99.90;;;;;;7335599;32;20134;-63
2022/06/13 05:02:02;;;;;;;19.95;7.25;;;12.50;99.90;;;;;;7347339;32;20332;-63
2022/06/13 05:06:13;;;;;;;15.20;6.62;;;12.60;99.90;;;;;;7340292;32;20202;-63
2022/06/13 05:10:18;;;;;;;17.45;6.35;;;12.70;99.90;;;;;;7338742;32;20287;-63
2022/06/13 05:14:49;;;;;;;17.55;7.12;;;12.80;99.90;;;;;;7333021;32;20137;-63
2022/06/13 05:19:09;;;;;;;20.58;7.05;;;12.90;99.90;;;;;;7324651;32;21527;-62
2022/06/13 05:23:48;;;;;;;19.27;7.03;;;13.00;99.90;;;;;;7339774;32;20202;-64
2022/06/13 05:27:50;;;;;;;13.55;6.25;;;13.10;99.90;;;;;;7340166;32;20712;-63
2022/06/13 05:31:53;;;;;;;16.42;6.62;;;13.20;99.90;;;;;;7347731;32;20378;-63
2022/06/13 05:35:57;;;;;;;18.30;7.35;;;13.30;99.90;;;;;;7345036;32;20213;-63
2022/06/13 05:39:59;;;;;;;14.77;6.90;;;13.70;99.90;;;;;;7339210;32;20213;-66
2022/06/13 05:44:01;;;;;;;17.37;6.65;;;13.80;99.90;;;;;;7341768;32;20661;-63
2022/06/13 05:48:03;;;;;;;12.90;6.12;;;14.20;99.90;;;;;;7323776;32;20694;-63
2022/06/13 05:52:05;;;;;;;14.70;6.30;;;14.60;99.90;;;;;;7346200;32;20153;-63
2022/06/13 05:56:10;;;;;;;15.50;5.97;;;14.70;99.90;;;;;;7348645;32;20129;-63
2022/06/13 06:00:22;;;;;;;13.77;6.00;;;14.80;99.90;;;;;;7338515;32;20107;-63
2022/06/13 06:04:24;;;;;;;14.45;6.00;;;14.80;99.90;;;;;;7334915;32;20217;-64
2022/06/13 06:08:32;;;;;;;11.57;5.75;;;14.80;99.90;;;;;;7339786;32;20313;-65
2022/06/13 06:12:34;;;;;;;13.27;5.62;;;14.80;99.90;;;;;;7334999;32;20130;-65
2022/06/13 06:16:36;;;;;;;13.50;5.68;;;14.90;99.90;;;;;;7332247;32;20481;-64
2022/06/13 06:20:38;;;;;;;15.63;5.97;;;15.00;99.90;;;;;;7337173;32;20311;-66
2022/06/13 06:24:40;;;;;;;14.85;5.93;;;14.90;99.90;;;;;;7337770;32;20267;-64
2022/06/13 06:28:42;;;;;;;18.33;6.25;;;14.80;99.90;;;;;;7343858;32;20119;-64
2022/06/13 06:32:44;;;;;;;19.20;6.70;;;14.70;99.90;;;;;;7349373;32;20130;-65
2022/06/13 06:36:46;;;;;;;10.93;6.00;;;14.50;99.90;;;;;;7350208;32;20627;-67
2022/06/13 06:40:49;;;;;;;14.18;7.03;;;14.60;99.90;;;;;;7343056;32;20227;-64
2022/06/13 06:44:50;;;;;;;14.52;5.90;;;14.40;99.90;;;;;;7338932;32;20269;-65
2022/06/13 06:48:52;;;;;;;15.02;6.55;;;14.30;99.90;;;;;;7346563;32;20114;-67
2022/06/13 06:52:54;;;;;;;17.62;7.03;;;14.50;99.90;;;;;;7343244;32;20262;-65
2022/06/13 07:01:18;;;;;;;13.55;6.07;;;14.60;99.90;;;;;;7341235;32;20111;-65
2022/06/13 07:05:20;;;;;;;16.42;7.25;;;14.80;99.90;;;;;;7341236;32;20198;-66
2022/06/13 07:09:22;;;;;;;15.98;7.70;;;15.00;99.90;;;;;;7346534;32;20657;-65
2022/06/13 07:13:24;;;;;;;16.02;8.15;;;15.20;99.90;;;;;;7341226;32;20557;-64
2022/06/13 07:17:26;;;;;;;18.25;7.50;;;15.50;99.90;;;;;;7347143;32;20107;-63
2022/06/13 07:21:27;;;;;;;15.75;8.93;;;15.50;99.90;;;;;;7338277;32;20726;-63
2022/06/13 07:25:31;;;;;;;20.77;9.10;;;15.60;99.90;;;;;;7343873;32;20739;-64
2022/06/13 07:29:32;;;;;;;17.25;8.57;;;15.80;99.90;;;;;;7348483;32;20224;-65
2022/06/13 07:33:34;;;;;;;18.83;10.73;;;16.00;99.90;;;;;;7344633;32;20132;-65
2022/06/13 07:41:57;;;;;;;20.50;12.95;;;16.10;99.90;;;;;;7341072;32;20455;-65
2022/06/13 07:46:02;;;;;;;24.80;13.48;;;16.50;99.90;;;;;;7340377;32;20206;-66
2022/06/13 07:50:04;;;;;;;18.27;11.20;;;16.70;99.90;;;;;;7339836;32;20166;-66
2022/06/13 07:54:06;;;;;;;25.35;13.55;;;16.80;99.90;;;;;;7345133;32;20115;-64
2022/06/13 07:58:20;;;;;;;26.77;15.18;;;16.80;99.90;;;;;;7340045;32;20133;-66
2022/06/13 08:02:21;;;;;;;24.20;13.80;;;16.80;99.90;;;;;;7344948;32;20656;-65
2022/06/13 08:06:24;;;;;;;20.17;13.90;;;16.70;99.90;;;;;;7344705;32;20191;-67
2022/06/13 08:10:26;;;;;;;28.98;17.60;;;16.80;99.90;;;;;;7346804;32;20359;-67
2022/06/13 08:14:28;;;;;;;28.12;17.17;;;17.50;99.90;;;;;;7350814;32;20463;-67
2022/06/13 08:18:30;;;;;;;26.20;14.00;;;18.30;99.90;;;;;;7340393;32;20496;-67
2022/06/13 08:22:32;;;;;;;25.35;14.87;;;18.70;99.90;;;;;;7342302;32;20221;-67
2022/06/13 08:26:33;;;;;;;20.77;14.18;;;18.40;99.90;;;;;;7341391;32;20222;-66
2022/06/13 08:30:45;;;;;;;19.83;14.32;;;18.30;99.90;;;;;;7346436;32;20099;-67
2022/06/13 08:34:47;;;;;;;23.85;14.15;;;18.30;99.90;;;;;;7340254;32;20134;-67
2022/06/13 08:38:49;;;;;;;26.73;15.05;;;18.60;99.90;;;;;;7337376;32;20234;-67
2022/06/13 08:43:06;;;;;;;23.25;13.38;;;18.20;99.90;;;;;;7339125;32;20590;-66
2022/06/13 08:47:28;;;;;;;22.40;10.95;;;18.00;99.90;;;;;;7344442;32;20107;-67
2022/06/13 08:51:48;;;;;;;21.70;10.07;;;18.20;99.90;;;;;;7345734;32;20354;-67
2022/06/13 08:55:58;;;;;;;17.17;9.40;;;18.20;99.90;;;;;;7338000;32;20181;-67
2022/06/13 09:00:11;;;;;;;15.77;7.47;;;18.20;99.90;;;;;;7337634;32;20129;-67
2022/06/13 09:04:19;;;;;;;17.80;6.53;;;18.10;99.90;;;;;;7342297;32;20208;-67
2022/06/13 09:08:33;;;;;;;15.35;6.30;;;18.00;99.90;;;;;;7317278;32;20217;-66
2022/06/13 09:13:10;;;;;;;13.90;4.60;;;19.00;99.90;;;;;;7341209;32;20682;-67
2022/06/13 09:17:50;;;;;;;14.15;5.03;;;19.70;99.90;;;;;;7319861;32;20550;-67
2022/06/13 09:22:10;;;;;;;18.52;5.10;;;19.40;99.90;;;;;;7319822;32;20690;-66
2022/06/13 09:26:23;;;;;;;22.23;6.05;;;19.30;99.90;;;;;;7341818;32;20485;-67
2022/06/13 09:30:30;;;;;;;11.65;5.10;;;18.70;99.90;;;;;;7336480;32;20153;-66
2022/06/13 09:34:41;;;;;;;12.15;4.12;;;18.30;99.90;;;;;;7341538;32;20202;-67
2022/06/13 09:38:50;;;;;;;11.55;4.53;;;17.80;99.90;;;;;;7340147;32;20165;-67
2022/06/13 09:43:09;;;;;;;16.10;5.78;;;17.40;99.90;;;;;;7344299;32;20279;-66
2022/06/13 09:47:29;;;;;;;18.15;5.55;;;17.30;99.90;;;;;;7343468;32;20467;-67
2022/06/13 09:51:49;;;;;;;12.40;4.68;;;17.70;99.90;;;;;;7338099;32;20104;-66
2022/06/13 09:56:08;;;;;;;11.85;4.70;;;18.10;99.90;;;;;;7343617;32;20459;-67
2022/06/13 10:00:28;;;;;;;12.82;4.90;;;19.10;99.90;;;;;;7343620;32;20107;-67
2022/06/13 10:04:49;;;;;;;9.45;4.03;;;20.40;99.90;;;;;;7343708;32;20133;-67
2022/06/13 10:09:18;;;;;;;12.82;4.37;;;21.20;99.90;;;;;;7338390;32;20428;-64
2022/06/13 10:13:32;;;;;;;10.70;3.20;;;21.70;99.90;;;;;;7336102;32;20222;-66
2022/06/13 10:17:49;;;;;;;10.52;3.97;;;22.10;99.90;;;;;;7336834;32;20115;-66
2022/06/13 10:21:59;;;;;;;12.18;3.35;;;21.10;99.90;;;;;;7342618;32;20221;-66
2022/06/13 10:26:06;;;;;;;7.68;2.70;;;21.10;99.90;;;;;;7342537;32;20161;-66
2022/06/13 10:30:25;;;;;;;8.52;2.92;;;21.10;99.90;;;;;;7336513;32;20916;-66
2022/06/13 10:34:31;;;;;;;12.60;3.50;;;20.80;99.90;;;;;;7338111;32;20178;-67
2022/06/13 10:39:03;;;;;;;10.95;3.30;;;20.10;99.90;;;;;;7336178;32;20387;-67
2022/06/13 10:43:05;;;;;;;10.07;2.90;;;19.50;99.90;;;;;;7345265;32;20496;-66
2022/06/13 10:47:19;;;;;;;13.10;3.22;;;20.00;99.90;;;;;;7338774;32;20226;-66
2022/06/13 10:51:22;;;;;;;10.48;2.62;;;20.10;99.90;;;;;;7341902;32;20220;-66
2022/06/13 10:55:26;;;;;;;8.45;2.40;;;20.30;99.90;;;;;;7337803;32;20220;-67
2022/06/13 10:59:37;;;;;;;8.85;2.10;;;20.60;99.90;;;;;;7343829;32;20115;-66
2022/06/13 11:03:42;;;;;;;7.10;1.70;;;20.40;99.90;;;;;;7339974;32;20137;-66
2022/06/13 11:07:49;;;;;;;6.45;1.90;;;20.10;99.90;;;;;;7339615;32;20750;-66
2022/06/13 11:12:00;;;;;;;5.23;1.47;;;19.50;99.90;;;;;;7340395;32;20107;-65
2022/06/13 11:25:20;;;;;;;5.90;1.70;;;18.90;99.90;;;;;;7315716;32;20220;-66
2022/06/13 11:29:21;;;;;;;3.83;1.27;;;19.00;99.90;;;;;;7340952;32;20187;-67
2022/06/13 11:33:31;;;;;;;4.25;1.12;;;18.90;99.90;;;;;;7341003;32;20168;-66
2022/06/13 11:37:32;;;;;;;3.50;1.27;;;18.90;99.90;;;;;;7345790;32;20280;-65
2022/06/13 11:41:41;;;;;;;6.37;1.20;;;19.30;99.90;;;;;;7340236;32;20133;-67
2022/06/13 11:45:43;;;;;;;5.32;1.23;;;19.60;99.90;;;;;;7337425;32;20501;-67
2022/06/13 11:49:47;;;;;;;3.25;1.00;;;19.90;99.90;;;;;;7343761;32;20169;-67
2022/06/13 11:53:51;;;;;;;3.20;1.30;;;20.40;99.90;;;;;;7343286;32;20154;-66
2022/06/13 11:57:59;;;;;;;3.70;1.25;;;20.30;97.10;;;;;;7340170;32;20221;-66
2022/06/13 12:02:01;;;;;;;3.58;1.15;;;19.90;98.10;;;;;;7342366;32;20214;-67
2022/06/13 12:06:10;;;;;;;5.00;1.10;;;19.60;99.50;;;;;;7339443;32;20247;-65
2022/06/13 12:10:20;;;;;;;3.10;0.90;;;19.60;98.50;;;;;;7338739;32;20100;-66
2022/06/13 12:14:28;;;;;;;5.25;0.90;;;19.50;99.90;;;;;;7340579;32;20502;-66
2022/06/13 12:18:35;;;;;;;5.50;1.10;;;19.30;99.90;;;;;;7344236;32;20233;-66
2022/06/13 12:23:10;;;;;;;2.60;0.98;;;19.50;99.90;;;;;;7346880;32;20412;-67
2022/06/13 12:27:19;;;;;;;3.30;0.43;;;19.50;99.20;;;;;;7339216;32;20639;-67
2022/06/13 12:31:32;;;;;;;1.85;0.50;;;19.10;94.70;;;;;;7337468;32;20202;-66
2022/06/13 12:36:13;;;;;;;2.30;0.60;;;19.00;96.10;;;;;;7335487;32;20476;-66
2022/06/13 12:40:14;;;;;;;5.45;0.70;;;18.70;97.50;;;;;;7336378;32;20234;-67
2022/06/13 12:44:31;;;;;;;3.00;0.60;;;18.60;99.90;;;;;;7337148;32;20237;-67
2022/06/13 12:48:51;;;;;;;2.67;0.77;;;18.70;99.90;;;;;;7344299;32;20749;-66
2022/06/13 12:53:05;;;;;;;6.03;0.90;;;19.20;99.90;;;;;;7339677;32;20194;-65
2022/06/13 12:57:19;;;;;;;3.33;0.82;;;19.90;98.60;;;;;;7342915;32;20476;-65
2022/06/13 13:01:52;;;;;;;4.25;1.05;;;20.50;99.20;;;;;;7339760;32;20409;-65
2022/06/13 13:06:14;;;;;;;3.05;0.75;;;20.10;95.20;;;;;;7331400;32;20130;-59
2022/06/13 13:10:39;;;;;;;3.67;0.68;;;20.20;95.20;;;;;;7340717;32;20237;-59
2022/06/13 13:15:05;;;;;;;1.75;0.60;;;20.40;96.50;;;;;;7345614;32;20111;-60
2022/06/13 13:19:20;;;;;;;2.45;0.60;;;20.80;94.70;;;;;;7342127;32;20132;-60
2022/06/13 13:23:25;;;;;;;3.25;0.70;;;21.10;92.00;;;;;;7333826;32;20618;-66
2022/06/13 13:27:32;;;;;;;3.47;0.70;;;21.00;92.00;;;;;;7343250;32;20107;-65
2022/06/13 13:32:18;;;;;;;4.97;0.80;;;20.60;91.20;;;;;;7343321;32;20229;-65
2022/06/13 13:36:29;;;;;;;3.28;0.70;;;20.70;93.60;;;;;;7329905;32;20146;-66
2022/06/13 13:40:39;;;;;;;4.55;0.70;;;20.90;93.00;;;;;;7344140;32;20495;-66
2022/06/13 13:44:50;;;;;;;4.78;0.68;;;21.20;92.60;;;;;;7344458;32;20111;-66
2022/06/13 13:48:55;;;;;;;6.55;1.10;;;20.90;92.70;;;;;;7351304;32;20108;-65
2022/06/13 13:53:01;;;;;;;28.17;3.75;;;20.50;92.90;;;;;;7340035;32;20126;-66
2022/06/13 13:57:21;;;;;;;5.72;1.33;;;20.10;93.90;;;;;;7342402;32;20446;-66
2022/06/13 14:01:38;;;;;;;3.97;0.85;;;20.20;93.30;;;;;;7341931;32;20138;-64
2022/06/13 14:05:58;;;;;;;16.27;14.00;;;20.40;90.60;;;;;;7339406;32;20618;-66
2022/06/13 14:10:01;;;;;;;2.12;0.60;;;20.60;86.90;;;;;;7345365;32;20302;-65
2022/06/13 14:14:07;;;;;;;2.33;0.50;;;20.30;87.20;;;;;;7339678;32;20567;-65
2022/06/13 14:18:15;;;;;;;4.12;0.50;;;20.50;90.00;;;;;;7337584;32;20107;-66
2022/06/13 14:22:22;;;;;;;3.28;0.55;;;20.60;92.00;;;;;;7337636;32;20134;-67
2022/06/13 14:26:34;;;;;;;2.70;0.67;;;20.80;91.90;;;;;;7346504;32;20214;-67
2022/06/13 14:35:15;;;;;;;1.77;0.62;;;21.10;91.30;;;;;;7343357;32;20119;-67
2022/06/13 14:39:54;;;;;;;2.87;0.90;;;21.30;89.10;;;;;;7349080;32;20130;-67
2022/06/13 14:44:23;;;;;;;6.30;0.80;;;20.60;87.70;;;;;;7344585;32;20597;-60
2022/06/13 14:49:06;;;;;;;7.60;0.90;;;20.20;91.30;;;;;;7332095;32;20209;-60
2022/06/13 14:53:29;;;;;;;4.62;0.88;;;20.40;92.40;;;;;;7345974;32;20196;-60
2022/06/13 14:57:31;;;;;;;3.87;0.88;;;20.60;92.40;;;;;;7341646;32;20253;-69
2022/06/13 15:01:37;;;;;;;2.95;0.80;;;21.10;95.20;;;;;;7349118;32;20194;-67
2022/06/13 15:05:39;;;;;;;5.32;1.05;;;21.30;92.00;;;;;;7350540;32;20186;-68
2022/06/13 15:09:44;;;;;;;1.70;0.60;;;21.30;91.10;;;;;;7342607;32;20734;-61
2022/06/13 15:13:47;;;;;;;4.97;0.82;;;21.50;90.40;;;;;;7344175;32;20481;-66
2022/06/13 15:17:49;;;;;;;1.52;0.47;;;21.20;87.70;;;;;;7343098;32;20102;-66
2022/06/13 15:21:55;;;;;;;6.65;0.95;;;21.40;91.40;;;;;;7344592;32;20146;-67
2022/06/13 15:25:57;;;;;;;2.58;0.73;;;21.50;87.80;;;;;;7345476;32;20804;-67
2022/06/13 15:30:07;;;;;;;4.10;0.90;;;21.50;88.70;;;;;;7351924;32;20130;-66
2022/06/13 15:34:22;;;;;;;4.93;1.00;;;21.20;90.40;;;;;;7346761;32;20244;-66
2022/06/13 15:38:43;;;;;;;5.30;0.73;;;20.80;90.70;;;;;;7335881;32;20693;-66
2022/06/13 15:42:46;;;;;;;3.83;0.70;;;20.90;89.30;;;;;;7342262;32;20499;-67
2022/06/13 15:46:52;;;;;;;4.75;1.05;;;21.00;90.70;;;;;;7349297;32;20166;-59
2022/06/13 15:51:13;;;;;;;4.18;0.62;;;21.00;90.00;;;;;;7344871;32;20209;-57
2022/06/13 15:55:18;;;;;;;3.78;0.85;;;21.00;90.20;;;;;;7344566;32;20214;-59
2022/06/13 15:59:20;;;;;;;6.95;1.15;;;21.00;91.10;;;;;;7345663;32;20118;-59
2022/06/13 16:03:25;;;;;;;4.22;0.75;;;20.90;90.20;;;;;;7341610;32;20238;-59
2022/06/13 16:07:30;;;;;;;4.35;0.90;;;20.40;90.40;;;;;;7340333;32;20179;-59
2022/06/13 16:11:32;;;;;;;5.45;0.88;;;20.00;91.00;;;;;;7345966;32;20630;-59
2022/06/13 16:15:39;;;;;;;2.40;0.60;;;20.20;90.90;;;;;;7336640;32;20625;-59
2022/06/13 16:19:41;;;;;;;4.20;0.80;;;20.30;91.00;;;;;;7336605;32;20245;-59
2022/06/13 16:24:05;;;;;;;3.00;0.85;;;20.30;89.00;;;;;;7349249;32;20467;-61
2022/06/13 16:28:16;;;;;;;3.37;0.60;;;20.20;89.20;;;;;;7340805;32;20153;-66
2022/06/13 16:32:21;;;;;;;1.87;0.70;;;20.20;86.10;;;;;;7341243;32;20600;-66
2022/06/13 16:36:50;;;;;;;4.85;0.70;;;20.10;87.50;;;;;;7335956;32;20185;-66
2022/06/13 16:40:54;;;;;;;3.35;0.77;;;19.90;88.90;;;;;;7331451;32;20628;-66
2022/06/13 16:45:07;;;;;;;5.03;0.80;;;19.80;89.70;;;;;;7335391;32;20151;-68
2022/06/13 16:49:08;;;;;;;5.20;0.70;;;19.50;87.30;;;;;;7355703;32;20111;-68
2022/06/13 16:53:13;;;;;;;2.72;0.82;;;19.20;87.20;;;;;;7335694;32;20102;-66
2022/06/13 16:57:18;;;;;;;2.83;0.80;;;19.20;88.90;;;;;;7339202;32;20206;-66
2022/06/13 17:01:20;;;;;;;3.25;0.80;;;19.40;89.30;;;;;;7339347;32;20425;-66
2022/06/13 17:05:29;;;;;;;4.20;0.90;;;19.30;88.30;;;;;;7334852;32;20138;-66
2022/06/13 17:09:53;;;;;;;5.15;1.00;;;19.30;87.30;;;;;;7339643;32;20215;-67
2022/06/13 17:13:56;;;;;;;3.47;0.70;;;19.30;85.60;;;;;;7341791;32;20622;-66
2022/06/13 17:18:00;;;;;;;3.03;0.68;;;19.20;83.70;;;;;;7332345;32;20720;-67
2022/06/13 17:22:03;;;;;;;3.50;0.57;;;19.10;81.30;;;;;;7343435;32;20119;-66
2022/06/13 17:34:48;;;;;;;3.83;1.00;;;18.90;80.70;;;;;;7337284;32;20535;-68
2022/06/13 17:38:53;;;;;;;4.20;0.82;;;18.80;82.90;;;;;;7342840;32;20297;-68
2022/06/13 17:42:58;;;;;;;2.35;0.70;;;18.70;84.40;;;;;;7347410;32;20291;-65
2022/06/13 17:47:02;;;;;;;1.67;0.70;;;18.60;80.50;;;;;;7335804;32;20204;-67
2022/06/13 17:51:06;;;;;;;2.72;0.60;;;18.60;84.20;;;;;;7345000;32;20178;-67
2022/06/13 17:55:09;;;;;;;3.78;0.82;;;18.50;87.50;;;;;;7338601;32;20609;-67
2022/06/13 17:59:12;;;;;;;3.78;0.68;;;18.50;87.00;;;;;;7340884;32;20107;-67
2022/06/13 18:03:14;;;;;;;4.37;0.70;;;18.40;87.60;;;;;;7342213;32;20600;-68
2022/06/13 18:07:20;;;;;;;2.87;0.80;;;18.20;88.00;;;;;;7337767;32;20609;-65
2022/06/13 18:11:22;;;;;;;9.75;7.25;;;18.20;90.20;;;;;;7341531;32;20134;-65
2022/06/13 18:15:24;;;;;;;2.45;0.85;;;18.30;89.10;;;;;;7339771;32;20205;-65
2022/06/13 18:19:29;;;;;;;3.60;0.75;;;18.20;90.50;;;;;;7333134;32;20220;-67
2022/06/13 18:23:33;;;;;;;1.80;0.40;;;18.20;91.70;;;;;;7334752;32;20107;-67
2022/06/13 18:27:37;;;;;;;5.20;0.60;;;18.00;91.40;;;;;;7346602;32;20128;-68
2022/06/13 18:31:42;;;;;;;3.03;0.80;;;17.90;91.80;;;;;;7338187;32;20238;-67
2022/06/13 18:35:44;;;;;;;4.85;0.55;;;17.80;91.60;;;;;;7347058;32;20146;-70
2022/06/13 18:39:46;;;;;;;2.47;0.50;;;17.70;93.00;;;;;;7344720;32;20569;-69
2022/06/13 18:43:52;;;;;;;4.55;0.90;;;17.60;92.70;;;;;;7348705;32;20276;-69
2022/06/13 18:47:55;;;;;;;3.72;0.73;;;17.50;94.30;;;;;;7349214;32;20103;-69
2022/06/13 18:51:57;;;;;;;3.67;0.70;;;17.50;93.90;;;;;;7349088;32;20186;-69
2022/06/13 18:55:59;;;;;;;3.10;0.70;;;17.30;94.20;;;;;;7347898;32;20201;-69
2022/06/13 19:00:01;;;;;;;4.22;0.65;;;17.20;95.10;;;;;;7338840;32;20160;-68
2022/06/13 19:04:16;;;;;;;4.10;0.90;;;17.00;95.70;;;;;;7343118;32;20170;-68
2022/06/13 19:08:19;;;;;;;4.00;0.77;;;16.90;96.20;;;;;;7335692;32;20177;-71
2022/06/13 19:12:23;;;;;;;6.82;1.00;;;16.80;97.60;;;;;;7347122;32;20111;-67
2022/06/13 19:16:26;;;;;;;3.20;0.98;;;16.70;97.10;;;;;;7342028;32;20190;-68
2022/06/13 19:20:32;;;;;;;4.28;0.88;;;16.60;98.10;;;;;;7344174;32;20107;-69
2022/06/13 19:24:34;;;;;;;5.05;0.93;;;16.50;99.90;;;;;;7346474;32;20115;-65
2022/06/13 19:28:42;;;;;;;4.00;1.27;;;16.40;99.90;;;;;;7337291;32;20569;-68
2022/06/13 19:32:48;;;;;;;7.68;1.00;;;16.20;99.90;;;;;;7338365;32;21041;-70
2022/06/13 19:36:50;;;;;;;11.95;5.87;;;16.10;99.90;;;;;;7340687;32;20146;-69
2022/06/13 19:40:55;;;;;;;6.43;1.62;;;15.90;99.90;;;;;;7346527;32;20185;-69
2022/06/13 19:44:57;;;;;;;4.35;0.95;;;15.80;99.90;;;;;;7358251;32;20141;-68
2022/06/13 19:49:00;;;;;;;4.60;0.80;;;15.50;99.90;;;;;;7353526;32;20111;-69
2022/06/13 19:53:11;;;;;;;4.70;0.85;;;15.40;99.90;;;;;;7348411;32;20115;-69
2022/06/13 19:57:19;;;;;;;6.00;1.23;;;15.20;99.90;;;;;;7346231;32;20155;-68
2022/06/13 20:01:21;;;;;;;3.78;0.85;;;15.10;99.90;;;;;;7352663;32;20111;-66
2022/06/13 20:05:24;;;;;;;4.40;0.95;;;14.90;99.90;;;;;;7350339;32;20435;-66
2022/06/13 20:09:25;;;;;;;5.03;0.70;;;14.80;99.90;;;;;;7342201;32;20103;-68
2022/06/13 20:13:33;;;;;;;7.15;1.12;;;14.70;99.90;;;;;;7351117;32;20108;-67
2022/06/13 20:17:35;;;;;;;5.32;0.90;;;14.60;99.90;;;;;;7355391;32;20143;-66
2022/06/13 20:21:38;;;;;;;2.12;0.80;;;14.50;99.90;;;;;;7348188;32;20875;-66
2022/06/13 20:25:39;;;;;;;2.92;0.90;;;14.40;99.90;;;;;;7344633;32;20688;-66
2022/06/13 20:29:41;;;;;;;6.68;1.37;;;14.30;99.90;;;;;;7344761;32;20111;-66
2022/06/13 20:33:48;;;;;;;5.15;1.42;;;14.20;99.90;;;;;;7350769;32;20444;-65
2022/06/13 20:37:50;;;;;;;4.43;1.35;;;14.20;99.90;;;;;;7340141;32;20479;-66
2022/06/13 20:41:53;;;;;;;5.85;1.58;;;14.00;99.90;;;;;;7339917;32;20111;-66
2022/06/13 20:45:55;;;;;;;5.55;1.17;;;14.10;99.90;;;;;;7349245;32;20207;-65
2022/06/13 20:49:58;;;;;;;6.43;0.93;;;13.90;99.90;;;;;;7349448;32;20119;-65
2022/06/13 20:54:00;;;;;;;10.98;1.37;;;13.80;99.90;;;;;;7348833;32;20127;-66
2022/06/13 20:58:01;;;;;;;5.35;0.85;;;13.70;99.90;;;;;;7342549;32;20557;-66
2022/06/13 21:02:11;;;;;;;7.30;0.90;;;13.60;99.90;;;;;;7340311;32;20126;-67
2022/06/13 21:06:13;;;;;;;2.30;0.95;;;13.50;99.90;;;;;;7344170;32;20115;-65
2022/06/13 21:10:16;;;;;;;4.47;0.90;;;13.30;99.90;;;;;;7349468;32;20249;-66
2022/06/13 21:14:17;;;;;;;8.30;1.30;;;13.10;99.90;;;;;;7349721;32;20115;-67
2022/06/13 21:18:20;;;;;;;5.43;1.12;;;12.90;99.90;;;;;;7345279;32;20107;-66
2022/06/13 21:22:22;;;;;;;3.92;1.40;;;12.90;99.90;;;;;;7341748;32;20242;-65
2022/06/13 21:26:24;;;;;;;5.03;0.80;;;12.70;99.90;;;;;;7343782;32;20743;-65
2022/06/13 21:30:27;;;;;;;3.95;1.27;;;12.50;99.90;;;;;;7340382;32;20265;-63
2022/06/13 21:34:29;;;;;;;2.47;0.95;;;12.30;99.90;;;;;;7344055;32;20111;-64
2022/06/13 21:38:30;;;;;;;5.00;1.40;;;12.10;99.90;;;;;;7347763;32;20183;-64
2022/06/13 21:42:34;;;;;;;6.78;1.12;;;12.00;99.90;;;;;;7343412;32;20209;-63
2022/06/13 21:46:37;;;;;;;4.80;1.00;;;11.80;99.90;;;;;;7348181;32;20220;-63
2022/06/13 21:50:41;;;;;;;4.57;1.30;;;11.60;99.90;;;;;;7343272;32;20130;-63
2022/06/13 21:54:43;;;;;;;7.47;1.62;;;11.50;99.90;;;;;;7350900;32;20119;-62
2022/06/13 21:58:46;;;;;;;5.18;1.30;;;11.30;99.90;;;;;;7342187;32;20134;-63
2022/06/13 22:02:48;;;;;;;5.35;1.10;;;11.20;99.90;;;;;;7346627;32;20183;-64